Time;durP1;ratioP1;P1;durP2;ratioP2;P2;SDS_P1;SDS_P2;PMS_P1;PMS_P2;Temp;Humidity;BMP_temperature;BMP_pressure;BME280_temperature;BME280_humidity;BME280_pressure;Samples;Min_cycle;Max_cycle;Signal;HPM_P1;HPM_P2
2023/05/26 00:02:01;;;;;;;7.10;5.10;;;;;;;20.35;53.80;100224.34;1624543;88;21131;-64
2023/05/26 00:04:32;;;;;;;11.55;5.35;;;;;;;20.35;53.81;100229.08;1633636;88;21070;-65
2023/05/26 00:07:03;;;;;;;8.30;5.50;;;;;;;20.29;53.90;100226.80;1624571;88;21506;-64
2023/05/26 00:09:33;;;;;;;6.80;5.45;;;;;;;20.19;54.11;100222.00;1633718;86;21254;-65
2023/05/26 00:12:05;;;;;;;8.15;5.25;;;;;;;20.10;54.29;100239.41;1647316;84;21165;-66
2023/05/26 00:14:36;;;;;;;6.37;4.87;;;;;;;20.01;54.59;100235.43;1686402;84;21079;-64
2023/05/26 00:17:06;;;;;;;8.00;5.58;;;;;;;19.94;54.92;100234.26;1715201;84;21110;-66
2023/05/26 00:19:38;;;;;;;14.68;6.25;;;;;;;19.89;55.03;100233.66;1715375;83;21193;-67
2023/05/26 00:22:07;;;;;;;6.83;5.50;;;;;;;19.85;55.29;100227.49;1715522;84;21071;-65
2023/05/26 00:24:37;;;;;;;10.95;5.50;;;;;;;19.81;55.40;100225.79;1715206;82;21110;-65
2023/05/26 00:27:07;;;;;;;9.68;5.53;;;;;;;19.79;55.41;100220.20;1624565;88;21113;-65
2023/05/26 00:29:39;;;;;;;8.68;5.92;;;;;;;19.77;55.32;100227.97;1633403;87;21054;-65
2023/05/26 00:32:08;;;;;;;7.37;5.33;;;;;;;19.77;55.31;100229.36;1624610;88;21085;-65
2023/05/26 00:34:39;;;;;;;8.08;5.65;;;;;;;19.77;55.30;100230.20;1633508;88;21125;-64
2023/05/26 00:37:09;;;;;;;7.70;5.47;;;;;;;19.78;55.11;100229.09;1624461;88;21113;-64
2023/05/26 00:39:40;;;;;;;10.20;5.45;;;;;;;19.77;55.07;100237.70;1633779;88;21546;-65
2023/05/26 00:42:09;;;;;;;12.50;5.67;;;;;;;19.77;54.97;100227.42;1633603;88;21065;-64
2023/05/26 00:44:40;;;;;;;8.13;5.40;;;;;;;19.75;54.83;100224.06;1657647;82;21499;-65
2023/05/26 00:47:12;;;;;;;10.15;5.55;;;;;;;19.75;54.67;100226.00;1710715;84;21047;-64
2023/05/26 00:49:42;;;;;;;7.97;5.30;;;;;;;19.73;54.62;100233.22;1710673;84;21043;-64
2023/05/26 00:52:15;;;;;;;8.53;5.53;;;;;;;19.69;54.63;100225.11;1710726;84;21556;-64
2023/05/26 00:54:46;;;;;;;8.03;5.53;;;;;;;19.66;54.69;100226.19;1710751;84;21094;-64
2023/05/26 00:57:16;;;;;;;9.63;5.65;;;;;;;19.66;54.73;100228.41;1710682;84;21107;-65
2023/05/26 00:59:46;;;;;;;8.35;5.15;;;;;;;19.67;54.55;100224.53;1710782;84;21529;-67
2023/05/26 01:02:15;;;;;;;6.25;5.17;;;;;;;19.67;54.47;100222.30;1710926;84;21071;-63
2023/05/26 01:04:45;;;;;;;6.80;5.42;;;;;;;19.66;54.30;100221.47;1710925;84;21122;-64
2023/05/26 01:07:16;;;;;;;8.40;5.25;;;;;;;19.66;54.24;100231.19;1690865;84;21479;-66
2023/05/26 01:09:45;;;;;;;8.23;5.72;;;;;;;19.66;54.29;100234.52;1710903;84;21051;-65
2023/05/26 01:12:20;;;;;;;7.33;5.67;;;;;;;19.60;54.30;100228.08;1691310;84;21066;-65
2023/05/26 01:14:54;;;;;;;9.38;5.80;;;;;;;19.55;54.31;100231.64;1710395;84;21519;-66
2023/05/26 01:17:38;;;;;;;7.37;5.25;;;;;;;19.52;54.34;100229.89;1710692;84;21019;-65
2023/05/26 01:20:20;;;;;;;7.80;5.45;;;;;;;19.50;54.35;100232.91;1692132;84;21067;-65
2023/05/26 01:23:01;;;;;;;8.45;5.33;;;;;;;19.47;54.32;100229.25;1710690;84;21047;-66
2023/05/26 01:26:01;;;;;;;9.00;5.80;;;;;;;19.45;54.33;100237.56;1710875;84;21105;-66
2023/05/26 01:28:32;;;;;;;7.92;5.47;;;;;;;19.43;54.36;100236.98;1710805;84;21067;-65
2023/05/26 01:31:02;;;;;;;6.17;5.40;;;;;;;19.41;54.39;100241.96;1710943;84;21102;-65
2023/05/26 01:33:33;;;;;;;7.20;5.87;;;;;;;19.43;54.41;100242.55;1710805;84;21547;-64
2023/05/26 01:36:04;;;;;;;7.72;5.67;;;;;;;19.45;54.29;100243.13;1690538;84;21099;-65
2023/05/26 01:38:34;;;;;;;11.68;6.20;;;;;;;19.46;54.28;100247.58;1710880;84;21034;-65
2023/05/26 01:41:11;;;;;;;6.15;5.50;;;;;;;19.47;54.26;100258.98;1710883;84;21439;-65
2023/05/26 01:44:09;;;;;;;6.28;5.35;;;;;;;19.47;54.28;100264.54;1709777;83;21582;-65
2023/05/26 01:46:45;;;;;;;6.08;5.37;;;;;;;19.45;54.42;100258.41;1701986;84;21075;-65
2023/05/26 01:49:15;;;;;;;7.30;5.80;;;;;;;19.35;54.83;100259.67;1702547;84;21454;-66
2023/05/26 01:51:50;;;;;;;7.83;5.65;;;;;;;19.24;55.13;100258.16;1702452;84;21134;-65
2023/05/26 01:54:21;;;;;;;9.00;5.10;;;;;;;19.13;55.47;100254.95;1682436;84;21075;-65
2023/05/26 01:56:52;;;;;;;6.87;5.45;;;;;;;19.03;55.82;100253.43;1682920;84;21015;-65
2023/05/26 01:59:22;;;;;;;9.35;5.72;;;;;;;18.98;56.03;100267.24;1682677;84;21051;-65
2023/05/26 02:01:51;;;;;;;7.22;5.65;;;;;;;18.90;56.35;100253.25;1624019;87;21499;-66
2023/05/26 02:04:21;;;;;;;8.08;5.10;;;;;;;18.83;56.57;100260.05;1624034;88;21126;-65
2023/05/26 02:06:52;;;;;;;6.58;5.33;;;;;;;18.78;56.92;100262.20;1624269;88;21125;-64
2023/05/26 02:09:23;;;;;;;8.58;6.30;;;;;;;18.75;57.03;100261.88;1624180;88;21097;-65
2023/05/26 02:11:53;;;;;;;8.15;5.30;;;;;;;18.70;57.12;100259.86;1602924;88;21065;-64
2023/05/26 02:14:25;;;;;;;8.03;5.37;;;;;;;18.63;57.31;100261.44;1624057;87;21038;-65
2023/05/26 02:16:54;;;;;;;7.75;5.78;;;;;;;18.61;57.52;100259.97;1624415;88;21055;-65
2023/05/26 02:19:25;;;;;;;7.12;5.30;;;;;;;18.58;57.73;100253.00;1643818;84;21130;-64
2023/05/26 02:21:55;;;;;;;7.70;5.62;;;;;;;18.57;57.99;100257.41;1702483;84;21031;-65
2023/05/26 02:24:25;;;;;;;8.00;5.72;;;;;;;18.51;58.29;100256.49;1702399;84;21051;-65
2023/05/26 02:26:55;;;;;;;8.20;5.92;;;;;;;18.49;58.60;100257.84;1702601;84;21064;-65
2023/05/26 02:29:25;;;;;;;6.87;5.90;;;;;;;18.48;58.87;100258.39;1682226;84;21089;-66
2023/05/26 02:31:56;;;;;;;10.10;6.95;;;;;;;18.51;59.08;100259.81;1702634;84;21063;-65
2023/05/26 02:34:26;;;;;;;9.53;6.42;;;;;;;18.50;59.27;100261.75;1702001;84;21043;-65
2023/05/26 02:36:55;;;;;;;8.83;6.20;;;;;;;18.52;59.51;100263.72;1702154;84;21047;-64
2023/05/26 02:39:25;;;;;;;7.80;6.05;;;;;;;18.56;59.81;100261.28;1703615;83;21126;-64
2023/05/26 02:41:55;;;;;;;8.20;6.45;;;;;;;18.58;60.01;100259.09;1702285;83;21516;-66
2023/05/26 02:44:25;;;;;;;8.70;6.40;;;;;;;18.62;60.37;100257.52;1703483;84;21145;-65
2023/05/26 02:46:54;;;;;;;8.33;6.45;;;;;;;18.64;60.47;100256.17;1705474;84;21525;-65
2023/05/26 02:49:26;;;;;;;9.30;6.15;;;;;;;18.65;60.71;100265.34;1705449;84;21483;-63
2023/05/26 02:51:55;;;;;;;16.93;7.37;;;;;;;18.65;60.80;100261.18;1705344;84;21549;-65
2023/05/26 02:54:25;;;;;;;12.85;7.10;;;;;;;18.65;60.87;100267.57;1705408;84;21676;-66
2023/05/26 02:56:55;;;;;;;13.43;10.50;;;;;;;18.67;61.07;100270.09;1705475;84;21501;-64
2023/05/26 02:59:25;;;;;;;24.18;18.32;;;;;;;18.69;61.15;100267.35;1686072;84;21059;-64
2023/05/26 03:01:55;;;;;;;27.75;21.42;;;;;;;18.71;61.21;100266.26;1705574;83;21063;-64
2023/05/26 03:04:24;;;;;;;35.52;24.07;;;;;;;18.73;61.32;100264.91;1705545;84;21047;-64
2023/05/26 03:06:54;;;;;;;26.07;21.35;;;;;;;18.75;61.46;100266.88;1705472;83;21114;-65
2023/05/26 03:09:26;;;;;;;26.95;21.17;;;;;;;18.79;61.43;100272.77;1705609;83;21091;-65
2023/05/26 03:11:56;;;;;;;22.52;15.40;;;;;;;18.82;61.54;100265.31;1705531;84;21059;-65
2023/05/26 03:14:26;;;;;;;21.68;13.08;;;;;;;18.82;61.61;100268.93;1705419;83;21080;-63
2023/05/26 03:16:56;;;;;;;16.93;10.78;;;;;;;18.85;61.72;100271.74;1685655;84;21059;-63
2023/05/26 03:19:27;;;;;;;32.95;10.58;;;;;;;18.89;61.81;100270.17;1626767;87;21085;-64
2023/05/26 03:22:01;;;;;;;19.02;9.80;;;;;;;18.89;61.85;100267.39;1627116;88;21073;-64
2023/05/26 03:24:35;;;;;;;13.13;9.50;;;;;;;18.91;61.95;100264.65;1626838;87;21034;-65
2023/05/26 03:27:08;;;;;;;13.03;8.53;;;;;;;18.95;62.08;100273.31;1626955;88;21188;-64
2023/05/26 03:29:38;;;;;;;13.98;9.05;;;;;;;18.97;62.20;100278.06;1627230;87;21591;-64
2023/05/26 03:32:10;;;;;;;15.40;7.80;;;;;;;19.00;62.29;100282.55;1626787;88;21505;-64
2023/05/26 03:34:40;;;;;;;21.50;9.83;;;;;;;19.03;62.45;100289.53;1627480;86;21038;-65
2023/05/26 03:37:11;;;;;;;18.92;8.15;;;;;;;19.05;62.55;100276.23;1653887;84;21447;-65
2023/05/26 03:39:41;;;;;;;14.87;8.53;;;;;;;19.11;62.66;100277.14;1705345;84;21063;-64
2023/05/26 03:42:12;;;;;;;12.07;7.95;;;;;;;19.14;62.78;100274.69;1626794;88;21137;-64
2023/05/26 03:44:44;;;;;;;10.70;7.83;;;;;;;19.18;62.88;100273.08;1628402;87;22192;-65
2023/05/26 03:47:14;;;;;;;19.25;8.00;;;;;;;19.22;62.90;100276.17;1556185;92;21163;-64
2023/05/26 03:49:45;;;;;;;16.55;8.15;;;;;;;19.26;62.98;100281.51;1556327;92;21636;-64
2023/05/26 03:52:17;;;;;;;12.50;7.70;;;;;;;19.27;63.01;100278.47;1556387;91;21174;-66
2023/05/26 03:54:48;;;;;;;16.80;8.05;;;;;;;19.31;63.03;100284.35;1556353;92;21586;-68
2023/05/26 03:57:19;;;;;;;14.95;8.18;;;;;;;19.37;62.97;100278.31;1556493;91;21550;-65
2023/05/26 03:59:49;;;;;;;19.45;7.72;;;;;;;19.41;63.06;100286.42;1556224;92;21582;-66
2023/05/26 04:02:20;;;;;;;13.83;8.55;;;;;;;19.43;63.03;100284.22;1556339;92;21106;-65
2023/05/26 04:04:52;;;;;;;15.03;8.00;;;;;;;19.47;62.91;100282.61;1556367;92;21147;-65
2023/05/26 04:07:21;;;;;;;9.63;7.17;;;;;;;19.52;62.84;100291.91;1587062;88;21094;-64
2023/05/26 04:09:53;;;;;;;18.98;8.05;;;;;;;19.56;62.60;100283.89;1607623;89;21069;-64
2023/05/26 04:12:22;;;;;;;9.95;7.05;;;;;;;19.60;62.06;100287.28;1681601;84;21106;-65
2023/05/26 04:14:52;;;;;;;12.73;6.72;;;;;;;19.68;61.07;100283.20;1691049;83;21166;-64
2023/05/26 04:17:22;;;;;;;10.00;6.33;;;;;;;19.77;60.31;100284.41;1715337;84;21086;-64
2023/05/26 04:19:52;;;;;;;8.73;6.00;;;;;;;19.87;59.88;100284.52;1660153;84;21528;-64
2023/05/26 04:22:22;;;;;;;14.63;6.40;;;;;;;19.95;58.69;100293.78;1715326;84;21058;-64
2023/05/26 04:24:53;;;;;;;8.05;5.90;;;;;;;20.04;57.96;100289.14;1690205;83;21051;-64
2023/05/26 04:27:25;;;;;;;7.97;5.62;;;;;;;20.09;57.18;100287.80;1708882;82;21083;-66
2023/05/26 04:30:00;;;;;;;12.23;6.05;;;;;;;20.18;56.67;100298.77;1707904;82;21031;-63
2023/05/26 04:32:45;;;;;;;9.65;6.03;;;;;;;20.30;55.93;100292.48;1829837;77;22400;-64
2023/05/26 04:35:24;;;;;;;11.85;5.92;;;;;;;20.32;55.38;100293.06;1634728;87;21166;-66
2023/05/26 04:37:53;;;;;;;8.58;6.17;;;;;;;20.38;55.00;100296.73;1704835;84;21618;-63
2023/05/26 04:40:24;;;;;;;7.45;5.40;;;;;;;20.43;54.43;100292.62;1704964;84;21135;-66
2023/05/26 04:42:57;;;;;;;8.98;5.30;;;;;;;20.49;53.58;100292.95;1704651;84;21630;-65
2023/05/26 04:45:25;;;;;;;9.33;5.60;;;;;;;20.55;52.71;100299.69;1681906;84;21131;-65
2023/05/26 04:47:56;;;;;;;8.35;5.47;;;;;;;20.63;52.18;100300.30;1704825;83;21134;-64
2023/05/26 04:50:26;;;;;;;8.98;5.90;;;;;;;20.69;51.98;100297.84;1658919;84;21191;-66
2023/05/26 04:52:56;;;;;;;12.68;6.00;;;;;;;20.78;52.14;100296.23;1729398;80;21575;-65
2023/05/26 04:55:26;;;;;;;7.22;5.60;;;;;;;20.92;51.64;100298.88;1788397;80;21555;-65
2023/05/26 04:57:55;;;;;;;12.37;5.47;;;;;;;21.08;51.35;100300.66;1788686;80;21091;-64
2023/05/26 05:00:25;;;;;;;13.93;6.00;;;;;;;21.34;50.56;100293.84;1788526;80;21708;-65
2023/05/26 05:02:58;;;;;;;8.35;5.92;;;;;;;21.67;49.41;100295.41;1788024;80;21119;-64
2023/05/26 05:05:48;;;;;;;11.18;5.95;;;;;;;21.93;48.58;100292.14;1769528;80;21251;-65
2023/05/26 05:08:17;;;;;;;10.63;5.05;;;;;;;22.25;48.27;100295.60;1788675;80;21567;-65
2023/05/26 05:10:47;;;;;;;6.03;4.60;;;;;;;22.53;46.89;100293.38;1788509;80;21111;-65
2023/05/26 05:13:16;;;;;;;9.73;5.08;;;;;;;22.83;45.86;100296.78;1768465;80;21111;-65
2023/05/26 05:15:47;;;;;;;9.25;5.03;;;;;;;23.07;44.64;100304.27;1788823;80;21107;-65
2023/05/26 05:18:17;;;;;;;9.25;5.50;;;;;;;23.28;44.03;100295.27;1788404;80;21141;-66
2023/05/26 05:20:49;;;;;;;8.80;4.87;;;;;;;23.50;43.67;100303.34;1788698;80;21142;-65
2023/05/26 05:23:20;;;;;;;9.25;4.87;;;;;;;23.82;42.73;100307.70;1788669;79;21083;-64
2023/05/26 05:25:52;;;;;;;7.47;4.40;;;;;;;24.07;42.03;100309.55;1768957;80;21130;-65
2023/05/26 05:28:23;;;;;;;7.30;4.10;;;;;;;24.33;41.55;100308.28;1788438;80;21254;-64
2023/05/26 05:30:55;;;;;;;12.85;5.35;;;;;;;24.69;41.10;100309.39;1769865;80;21608;-63
2023/05/26 05:33:25;;;;;;;9.75;5.00;;;;;;;25.04;40.07;100305.47;1775123;79;21135;-63
2023/05/26 05:35:55;;;;;;;8.08;4.55;;;;;;;25.27;39.88;100301.85;1775180;81;21276;-63
2023/05/26 05:38:26;;;;;;;5.22;4.55;;;;;;;25.48;39.75;100304.72;1774904;81;21111;-63
2023/05/26 05:40:56;;;;;;;6.33;4.33;;;;;;;25.77;39.37;100298.21;1775140;81;21119;-65
2023/05/26 05:43:28;;;;;;;9.38;6.12;;;;;;;26.08;38.85;100307.91;1774759;81;21163;-65
2023/05/26 05:46:00;;;;;;;6.60;4.50;;;;;;;26.38;37.92;100307.20;1774722;81;21104;-63
2023/05/26 05:48:48;;;;;;;7.53;4.62;;;;;;;26.65;36.82;100307.31;1774634;81;21621;-63
2023/05/26 05:51:21;;;;;;;8.75;4.80;;;;;;;26.86;35.95;100303.61;1774375;80;21139;-63
2023/05/26 05:53:51;;;;;;;9.95;5.37;;;;;;;26.99;35.51;100306.22;1774300;79;21158;-64
2023/05/26 05:56:21;;;;;;;10.23;4.37;;;;;;;27.16;35.34;100300.83;1774542;81;21143;-64
2023/05/26 05:58:50;;;;;;;9.60;4.75;;;;;;;27.39;35.26;100306.88;1763668;81;21132;-64
2023/05/26 06:01:20;;;;;;;9.18;4.22;;;;;;;27.62;34.67;100304.19;1774503;81;21175;-64
2023/05/26 06:03:50;;;;;;;17.20;5.33;;;;;;;27.85;34.33;100306.52;1774471;81;21115;-64
2023/05/26 06:06:20;;;;;;;8.55;4.25;;;;;;;27.93;34.39;100303.78;1763522;81;21135;-64
2023/05/26 06:08:51;;;;;;;9.55;5.17;;;;;;;28.03;33.85;100303.59;1774610;81;21637;-65
2023/05/26 06:11:21;;;;;;;6.15;4.67;;;;;;;28.10;34.05;100302.58;1764018;80;21247;-64
2023/05/26 06:13:54;;;;;;;8.93;4.97;;;;;;;28.15;34.16;100307.26;1774662;81;21146;-64
2023/05/26 06:16:24;;;;;;;7.58;4.80;;;;;;;28.24;33.96;100310.19;1774390;81;21555;-64
2023/05/26 06:18:55;;;;;;;10.25;4.90;;;;;;;28.38;33.92;100308.16;1774516;79;21159;-64
2023/05/26 06:21:26;;;;;;;5.85;4.08;;;;;;;28.49;33.22;100308.73;1763745;81;21116;-63
2023/05/26 06:23:57;;;;;;;6.20;4.53;;;;;;;28.49;33.33;100308.73;1763708;81;21194;-64
2023/05/26 06:26:27;;;;;;;17.05;7.65;;;;;;;28.48;33.41;100307.91;1774453;79;21139;-63
2023/05/26 06:28:57;;;;;;;8.93;5.22;;;;;;;28.55;33.20;100304.64;1774499;79;21166;-64
2023/05/26 06:31:28;;;;;;;6.47;4.08;;;;;;;28.54;33.16;100319.89;1774336;80;21555;-65
2023/05/26 06:34:07;;;;;;;8.03;4.12;;;;;;;28.62;33.33;100311.53;1773539;80;21123;-65
2023/05/26 06:36:37;;;;;;;6.05;4.08;;;;;;;28.83;32.62;100319.47;1774309;81;21194;-65
2023/05/26 06:39:07;;;;;;;9.63;4.65;;;;;;;29.02;32.25;100316.72;1774395;81;21251;-65
2023/05/26 06:41:36;;;;;;;10.03;5.03;;;;;;;29.06;32.18;100316.08;1774460;81;21087;-65
2023/05/26 06:44:06;;;;;;;6.80;4.10;;;;;;;29.18;32.18;100316.30;1701730;84;21309;-65
2023/05/26 06:46:36;;;;;;;8.55;4.20;;;;;;;29.29;31.86;100319.97;1627909;86;21175;-64
2023/05/26 06:49:06;;;;;;;9.63;4.40;;;;;;;29.39;31.22;100316.02;1701812;84;21712;-65
2023/05/26 06:51:39;;;;;;;7.75;4.15;;;;;;;29.39;31.31;100320.25;1701587;83;21582;-66
2023/05/26 06:54:09;;;;;;;7.17;3.90;;;;;;;29.51;30.81;100318.27;1627717;88;21174;-64
2023/05/26 06:56:38;;;;;;;9.23;3.80;;;;;;;29.61;30.17;100315.14;1701718;84;21158;-65
2023/05/26 06:59:07;;;;;;;7.33;3.50;;;;;;;29.72;30.19;100315.09;1701750;83;21688;-67
2023/05/26 07:01:38;;;;;;;11.60;4.50;;;;;;;29.87;30.13;100318.87;1627829;88;21190;-64
2023/05/26 07:04:07;;;;;;;9.85;3.90;;;;;;;30.02;30.01;100319.05;1701928;84;21200;-64
2023/05/26 07:06:36;;;;;;;12.23;4.40;;;;;;;30.05;29.88;100318.39;1701702;84;21654;-63
2023/05/26 07:09:08;;;;;;;7.12;3.70;;;;;;;30.18;29.72;100332.13;1750488;81;21143;-64
2023/05/26 07:11:40;;;;;;;8.60;3.95;;;;;;;30.38;29.37;100321.58;1773881;80;21139;-64
2023/05/26 07:14:12;;;;;;;6.80;3.33;;;;;;;30.53;28.74;100331.55;1773905;80;21170;-64
2023/05/26 07:16:42;;;;;;;10.32;4.00;;;;;;;30.52;28.08;100324.23;1763527;81;21165;-64
2023/05/26 07:19:13;;;;;;;5.55;3.62;;;;;;;30.52;28.07;100320.83;1774407;79;21112;-65
2023/05/26 07:21:43;;;;;;;8.48;3.60;;;;;;;30.42;28.56;100327.39;1774486;81;21106;-64
2023/05/26 07:24:13;;;;;;;6.78;3.70;;;;;;;30.59;27.91;100318.97;1774515;81;21139;-65
2023/05/26 07:26:43;;;;;;;4.97;3.77;;;;;;;30.73;28.10;100314.55;1774637;81;21554;-65
2023/05/26 07:29:13;;;;;;;8.05;3.95;;;;;;;30.84;28.67;100320.11;1774590;81;21135;-66
2023/05/26 07:31:43;;;;;;;5.72;3.85;;;;;;;31.00;28.27;100314.16;1774322;80;21147;-64
2023/05/26 07:34:13;;;;;;;5.30;4.12;;;;;;;30.93;28.63;100319.50;1774738;81;21562;-64
2023/05/26 07:36:44;;;;;;;7.67;4.25;;;;;;;30.97;28.82;100320.49;1774472;81;21100;-63
2023/05/26 07:39:13;;;;;;;6.85;4.45;;;;;;;31.13;28.79;100322.20;1774606;80;21108;-63
2023/05/26 07:41:42;;;;;;;8.25;4.42;;;;;;;31.20;28.75;100324.79;1774606;80;21104;-65
2023/05/26 07:44:11;;;;;;;8.85;4.10;;;;;;;31.06;28.24;100319.89;1772809;81;21313;-64
2023/05/26 07:46:42;;;;;;;6.87;3.87;;;;;;;30.85;28.14;100318.94;1774535;81;21361;-66
2023/05/26 07:49:11;;;;;;;5.12;3.67;;;;;;;30.80;28.41;100314.87;1774676;81;21127;-64
2023/05/26 07:51:42;;;;;;;5.75;4.15;;;;;;;30.92;28.40;100310.77;1773940;79;21088;-65
2023/05/26 07:54:12;;;;;;;6.03;4.10;;;;;;;31.22;27.94;100306.08;1774434;81;21127;-65
2023/05/26 07:56:42;;;;;;;5.33;4.25;;;;;;;31.40;27.97;100318.17;1764511;81;21139;-65
2023/05/26 07:59:11;;;;;;;7.15;3.92;;;;;;;31.68;27.73;100310.05;1751005;81;21141;-67
2023/05/26 08:01:42;;;;;;;7.85;3.80;;;;;;;31.71;27.37;100315.89;1769251;81;21099;-66
2023/05/26 08:04:12;;;;;;;7.92;3.90;;;;;;;31.70;26.51;100317.65;1702627;84;21133;-68
2023/05/26 08:06:41;;;;;;;5.05;3.58;;;;;;;31.83;26.63;100311.73;1759383;80;21640;-67
2023/05/26 08:09:11;;;;;;;7.30;3.87;;;;;;;31.85;26.24;100315.05;1759345;80;21115;-68
2023/05/26 08:11:41;;;;;;;7.95;4.15;;;;;;;31.92;26.15;100310.30;1759114;81;21551;-66
2023/05/26 08:14:11;;;;;;;5.47;3.80;;;;;;;32.07;25.48;100313.12;1747358;81;21178;-67
2023/05/26 08:16:42;;;;;;;6.55;3.42;;;;;;;32.00;24.77;100313.66;1743710;82;21143;-66
2023/05/26 08:19:12;;;;;;;5.53;3.12;;;;;;;31.88;24.85;100314.16;1743713;82;21555;-67
2023/05/26 08:21:42;;;;;;;6.28;3.92;;;;;;;31.71;24.80;100307.39;1743859;82;21154;-65
2023/05/26 08:24:11;;;;;;;5.42;3.67;;;;;;;31.77;25.25;100310.86;1743649;81;21186;-67
2023/05/26 08:26:40;;;;;;;7.08;3.17;;;;;;;31.94;25.01;100307.12;1743910;82;21563;-66
2023/05/26 08:29:11;;;;;;;5.60;3.30;;;;;;;32.05;24.93;100309.80;1709652;82;21135;-67
2023/05/26 08:31:40;;;;;;;3.58;3.20;;;;;;;32.13;24.79;100307.48;1770988;81;21116;-67
2023/05/26 08:34:10;;;;;;;6.28;3.70;;;;;;;32.18;24.60;100302.20;1686719;84;21115;-68
2023/05/26 08:36:39;;;;;;;7.40;3.33;;;;;;;32.13;24.42;100296.97;1772669;81;21159;-68
2023/05/26 08:39:08;;;;;;;7.03;2.90;;;;;;;32.05;24.45;100297.04;1773124;81;21123;-66
2023/05/26 08:41:50;;;;;;;6.20;3.40;;;;;;;32.10;24.40;100299.67;1772684;81;21567;-67
2023/05/26 08:44:20;;;;;;;5.33;3.08;;;;;;;32.13;23.87;100296.14;1748348;81;21146;-68
2023/05/26 08:46:55;;;;;;;7.33;3.20;;;;;;;32.14;23.54;100292.13;1772698;81;21147;-66
2023/05/26 08:49:25;;;;;;;4.70;3.02;;;;;;;32.17;23.52;100288.61;1706571;84;21131;-67
2023/05/26 08:52:02;;;;;;;4.80;3.50;;;;;;;32.17;23.12;100288.61;1772703;81;21119;-69
2023/05/26 08:54:32;;;;;;;11.10;4.20;;;;;;;32.15;23.10;100276.78;1772718;81;21143;-66
2023/05/26 08:57:06;;;;;;;4.72;3.20;;;;;;;32.18;23.36;100280.34;1772225;80;21099;-67
2023/05/26 08:59:36;;;;;;;7.60;3.58;;;;;;;32.18;23.32;100274.67;1772625;81;21546;-67
2023/05/26 09:02:05;;;;;;;5.65;3.27;;;;;;;32.14;23.17;100270.87;1759107;81;21151;-67
2023/05/26 09:04:35;;;;;;;5.25;3.35;;;;;;;32.09;23.66;100273.32;1747176;81;21227;-67
2023/05/26 09:07:06;;;;;;;4.17;3.40;;;;;;;32.06;23.16;100277.44;1743702;81;21151;-67
2023/05/26 09:09:38;;;;;;;4.87;3.87;;;;;;;31.91;23.24;100271.79;1742277;81;21124;-66
2023/05/26 09:12:11;;;;;;;5.30;3.33;;;;;;;31.81;23.35;100270.16;1733358;82;21103;-72
2023/05/26 09:14:40;;;;;;;5.05;3.60;;;;;;;31.67;23.57;100265.30;1743497;82;21115;-67
2023/05/26 09:17:12;;;;;;;7.92;3.77;;;;;;;31.53;23.88;100256.22;1743659;81;21143;-66
2023/05/26 09:19:46;;;;;;;5.90;3.52;;;;;;;31.44;24.10;100264.76;1743954;82;21202;-66
2023/05/26 09:22:16;;;;;;;5.50;4.78;;;;;;;31.31;24.01;100256.50;1743454;81;21564;-68
2023/05/26 09:24:49;;;;;;;6.72;3.20;;;;;;;31.21;23.91;100266.17;1743780;81;21116;-68
2023/05/26 09:27:22;;;;;;;5.53;3.12;;;;;;;31.18;23.91;100270.51;1744092;81;21155;-68
2023/05/26 09:29:55;;;;;;;5.75;3.25;;;;;;;31.13;23.75;100266.41;1743860;82;21543;-66
2023/05/26 09:32:26;;;;;;;6.00;3.37;;;;;;;30.98;23.80;100259.90;1734721;82;21567;-68
2023/05/26 09:34:58;;;;;;;5.25;3.08;;;;;;;30.89;24.06;100254.27;1753825;82;21115;-66
2023/05/26 09:37:31;;;;;;;7.08;4.03;;;;;;;30.80;23.62;100254.88;1753911;82;21185;-66
2023/05/26 09:40:14;;;;;;;10.13;3.20;;;;;;;30.71;23.98;100254.64;1754017;82;21091;-66
2023/05/26 09:42:52;;;;;;;3.75;2.92;;;;;;;30.69;23.88;100249.91;1753867;82;21283;-66
2023/05/26 09:45:22;;;;;;;5.67;3.50;;;;;;;30.54;24.10;100240.72;1753396;81;21563;-68
2023/05/26 09:47:56;;;;;;;5.22;3.15;;;;;;;30.34;23.82;100248.48;1754056;82;21133;-66
2023/05/26 09:50:24;;;;;;;7.62;3.58;;;;;;;30.20;24.26;100253.47;1753806;80;21586;-67
2023/05/26 09:52:55;;;;;;;8.00;3.45;;;;;;;30.18;23.68;100250.98;1753787;82;21186;-66
2023/05/26 09:55:25;;;;;;;5.12;3.05;;;;;;;30.15;23.12;100245.99;1753747;81;21142;-69
2023/05/26 09:57:54;;;;;;;3.85;2.87;;;;;;;30.07;23.43;100245.41;1753726;82;21119;-70
2023/05/26 10:00:25;;;;;;;6.47;3.30;;;;;;;30.02;23.03;100245.58;1753931;82;21166;-67
2023/05/26 10:02:54;;;;;;;4.35;3.12;;;;;;;29.93;23.54;100235.65;1753774;82;21201;-66
2023/05/26 10:05:25;;;;;;;19.52;3.45;;;;;;;29.87;23.67;100234.12;1777867;80;21111;-66
2023/05/26 10:07:54;;;;;;;6.10;3.77;;;;;;;29.86;23.55;100229.63;1784878;80;21122;-65
2023/05/26 10:10:24;;;;;;;5.00;3.35;;;;;;;29.84;23.07;100220.66;1784793;80;21087;-66
2023/05/26 10:12:54;;;;;;;5.90;3.17;;;;;;;29.82;23.54;100224.39;1784691;80;21471;-66
2023/05/26 10:15:24;;;;;;;15.28;5.35;;;;;;;29.88;24.10;100219.41;1784855;80;21187;-66
2023/05/26 10:17:56;;;;;;;6.35;3.80;;;;;;;29.83;24.21;100225.22;1784734;80;21108;-68
2023/05/26 10:20:26;;;;;;;6.33;3.20;;;;;;;29.75;24.32;100212.75;1765795;80;21111;-67
2023/05/26 10:23:10;;;;;;;8.85;3.65;;;;;;;29.73;24.13;100213.66;1742387;80;21134;-67
2023/05/26 10:26:11;;;;;;;5.62;3.42;;;;;;;29.74;24.36;100216.73;1784845;80;21575;-68
2023/05/26 10:28:57;;;;;;;4.90;3.27;;;;;;;29.72;24.02;100219.64;1784540;79;21087;-68
2023/05/26 10:31:31;;;;;;;5.47;3.20;;;;;;;29.64;24.14;100215.06;1785158;80;21560;-67
2023/05/26 10:34:01;;;;;;;9.20;3.25;;;;;;;29.61;23.63;100206.42;1787235;79;21134;-66
2023/05/26 10:36:34;;;;;;;5.83;3.10;;;;;;;29.64;23.11;100219.87;1788358;80;21119;-66
2023/05/26 10:39:02;;;;;;;6.30;3.08;;;;;;;29.58;23.13;100209.32;1788126;80;21809;-66
2023/05/26 10:41:49;;;;;;;5.62;3.52;;;;;;;29.57;23.28;100212.48;1730551;80;21205;-66
2023/05/26 10:44:41;;;;;;;5.60;3.70;;;;;;;29.56;23.39;100210.81;1788209;80;21108;-66
2023/05/26 10:47:15;;;;;;;4.85;3.27;;;;;;;29.52;23.30;100220.52;1788103;80;21575;-65
2023/05/26 10:49:58;;;;;;;4.40;3.02;;;;;;;29.40;22.96;100215.23;1746189;80;21111;-65
2023/05/26 10:52:27;;;;;;;4.65;3.33;;;;;;;29.38;23.09;100216.14;1788228;80;21122;-66
2023/05/26 10:54:59;;;;;;;4.12;2.95;;;;;;;29.41;22.69;100214.06;1788009;80;21567;-66
2023/05/26 10:57:33;;;;;;;4.03;3.30;;;;;;;29.45;23.11;100210.29;1788149;80;21609;-65
2023/05/26 11:00:27;;;;;;;5.33;3.22;;;;;;;29.42;23.55;100210.09;1788047;80;21559;-67
2023/05/26 11:02:57;;;;;;;8.63;3.58;;;;;;;29.38;23.70;100206.25;1788159;80;21190;-66
2023/05/26 11:05:34;;;;;;;6.17;3.50;;;;;;;29.34;24.19;100206.08;1787019;80;21146;-64
2023/05/26 11:08:04;;;;;;;6.17;3.33;;;;;;;29.25;24.60;100214.48;1719645;83;21154;-66
2023/05/26 11:11:02;;;;;;;7.83;3.77;;;;;;;29.19;24.30;100212.14;1669988;83;21135;-67
2023/05/26 11:13:44;;;;;;;10.95;3.10;;;;;;;29.17;24.17;100213.88;1649811;83;21138;-66
2023/05/26 11:16:24;;;;;;;5.42;3.17;;;;;;;29.07;24.40;100211.36;1719448;83;21138;-67
2023/05/26 11:18:56;;;;;;;4.87;3.40;;;;;;;29.03;24.24;100209.77;1719420;83;21199;-65
2023/05/26 11:21:28;;;;;;;4.65;3.08;;;;;;;29.01;24.19;100209.25;1719765;83;21131;-65
2023/05/26 11:23:58;;;;;;;5.75;3.47;;;;;;;29.02;24.76;100200.21;1719663;83;21555;-66
2023/05/26 11:26:30;;;;;;;5.40;3.25;;;;;;;29.04;24.44;100194.50;1719498;83;21189;-66
2023/05/26 11:29:04;;;;;;;6.03;3.22;;;;;;;29.13;23.99;100203.58;1719482;83;21135;-68
2023/05/26 11:31:34;;;;;;;4.75;2.90;;;;;;;29.15;23.70;100191.38;1719510;83;21166;-66
2023/05/26 11:34:04;;;;;;;4.78;3.30;;;;;;;29.07;23.82;100197.24;1714410;83;21131;-65
2023/05/26 11:36:35;;;;;;;5.03;3.40;;;;;;;28.94;23.99;100186.33;1780881;80;21099;-69
2023/05/26 11:39:04;;;;;;;5.35;3.50;;;;;;;28.88;23.94;100198.08;1714374;84;21127;-66
2023/05/26 11:41:34;;;;;;;6.37;3.20;;;;;;;28.75;23.99;100191.35;1749986;80;21138;-65
2023/05/26 11:44:02;;;;;;;5.35;3.22;;;;;;;28.67;24.17;100199.19;1780879;80;21119;-67
2023/05/26 11:46:32;;;;;;;6.65;3.52;;;;;;;28.59;24.05;100183.86;1641318;84;21217;-68